createdAt,value
2023-04-14T00:03:43.601Z,96622.50
2023-04-14T00:07:48.181Z,96631.44
2023-04-14T00:11:51.596Z,96626.56
2023-04-14T00:15:55.182Z,96623.16
2023-04-14T00:19:58.566Z,96618.97
2023-04-14T00:24:03.133Z,96628.66
2023-04-14T00:28:07.108Z,96631.41
2023-04-14T00:32:10.598Z,96641.31
2023-04-14T00:36:13.916Z,96642.44
2023-04-14T00:40:18.652Z,96651.47
2023-04-14T00:44:23.064Z,96642.09
2023-04-14T00:48:26.150Z,96631.09
2023-04-14T00:52:29.525Z,96621.06
2023-04-14T00:56:35.239Z,96613.91
2023-04-14T01:00:39.542Z,96624.59
2023-04-14T01:04:53.795Z,96614.56
2023-04-14T01:08:58.271Z,96621.38
2023-04-14T01:13:22.830Z,96614.91
2023-04-14T01:17:34.099Z,96615.06
2023-04-14T01:21:42.968Z,96615.56
2023-04-14T01:26:08.792Z,96621.84
2023-04-14T01:30:29.973Z,96619.91
2023-04-14T01:34:39.371Z,96619.56
2023-04-14T01:38:44.118Z,96628.94
2023-04-14T01:42:51.651Z,96629.06
2023-04-14T01:46:57.785Z,96629.88
2023-04-14T01:51:04.822Z,96631.81
2023-04-14T01:55:10.685Z,96629.31
2023-04-14T01:59:16.042Z,96616.06
2023-04-14T02:03:20.740Z,96607.50
2023-04-14T02:07:27.398Z,96606.97
2023-04-14T02:11:32.106Z,96605.38
2023-04-14T02:15:37.492Z,96603.72
2023-04-14T02:19:44.045Z,96599.69
2023-04-14T02:23:49.168Z,96600.66
2023-04-14T02:27:57.473Z,96608.06
2023-04-14T02:32:05.010Z,96599.81
2023-04-14T02:36:15.410Z,96602.88
2023-04-14T02:40:26.050Z,96591.72
2023-04-14T02:44:33.896Z,96595.59
2023-04-14T02:48:38.552Z,96583.63
2023-04-14T02:52:42.404Z,96579.91
2023-04-14T02:56:48.032Z,96565.50
2023-04-14T03:00:52.043Z,96567.75
2023-04-14T03:04:56.574Z,96552.25
2023-04-14T03:09:01.971Z,96544.50
2023-04-14T03:13:09.230Z,96546.28
2023-04-14T03:17:14.956Z,96547.75
2023-04-14T03:21:19.921Z,96559.69
2023-04-14T03:25:23.075Z,96557.91
2023-04-14T03:29:30.658Z,96548.41
2023-04-14T03:33:34.118Z,96537.09
2023-04-14T03:37:41.663Z,96523.38
2023-04-14T03:41:49.351Z,96522.41
2023-04-14T03:45:54.335Z,96533.41
2023-04-14T03:50:01.373Z,96548.09
2023-04-14T03:54:07.695Z,96544.84
2023-04-14T03:58:13.495Z,96534.50
2023-04-14T04:02:21.385Z,96530.47
2023-04-14T04:06:25.998Z,96545.19
2023-04-14T04:10:31.760Z,96538.69
2023-04-14T04:14:39.044Z,96533.88
2023-04-14T04:18:50.976Z,96532.59
2023-04-14T04:22:58.186Z,96535.31
2023-04-14T04:27:01.720Z,96546.31
2023-04-14T04:31:07.290Z,96531.44
2023-04-14T04:35:13.140Z,96524.38
2023-04-14T04:39:16.257Z,96510.47
2023-04-14T04:43:19.644Z,96515.34
2023-04-14T04:47:23.747Z,96514.34
2023-04-14T04:51:29.243Z,96503.88
2023-04-14T04:55:32.399Z,96503.56
2023-04-14T04:59:38.356Z,96507.78
2023-04-14T05:03:42.287Z,96515.84
2023-04-14T05:07:46.996Z,96512.28
2023-04-14T05:11:50.584Z,96515.16
2023-04-14T05:15:53.951Z,96520.03
2023-04-14T05:19:57.853Z,96532.63
2023-04-14T05:24:02.654Z,96525.72
2023-04-14T05:28:05.992Z,96539.41
2023-04-14T05:32:09.862Z,96540.88
2023-04-14T05:36:12.938Z,96527.47
2023-04-14T05:40:18.526Z,96535.22
2023-04-14T05:44:22.785Z,96522.00
2023-04-14T05:48:29.485Z,96522.34
2023-04-14T05:52:32.998Z,96527.19
2023-04-14T05:56:38.626Z,96533.19
2023-04-14T06:00:41.486Z,96533.03
2023-04-14T06:04:45.230Z,96539.50
2023-04-14T06:08:48.943Z,96532.88
2023-04-14T06:12:53.827Z,96539.50
2023-04-14T06:16:57.805Z,96536.59
2023-04-14T06:21:01.623Z,96532.72
2023-04-14T06:25:05.321Z,96534.00
2023-04-14T06:29:10.699Z,96520.59
2023-04-14T06:33:13.854Z,96509.75
2023-04-14T06:37:18.126Z,96508.47
2023-04-14T06:41:21.280Z,96501.69
2023-04-14T06:45:26.564Z,96506.84
2023-04-14T06:49:29.645Z,96504.91
2023-04-14T06:53:33.564Z,96511.69
2023-04-14T06:57:36.909Z,96511.00
2023-04-14T07:01:43.148Z,96510.06
2023-04-14T07:05:46.809Z,96527.53
2023-04-14T07:09:50.447Z,96520.22
2023-04-14T07:13:53.632Z,96523.97
2023-04-14T07:18:00.019Z,96518.09
2023-04-14T07:22:03.244Z,96533.97
2023-04-14T07:26:07.666Z,96541.72
2023-04-14T07:30:12.065Z,96527.81
2023-04-14T07:34:18.921Z,96527.50
2023-04-14T07:38:22.140Z,96516.81
2023-04-14T07:42:25.473Z,96511.97
2023-04-14T07:46:28.740Z,96507.13
2023-04-14T07:50:33.772Z,96518.63
2023-04-14T07:54:36.863Z,96538.53
2023-04-14T07:58:40.762Z,96550.34
2023-04-14T08:02:44.040Z,96542.91
2023-04-14T08:06:49.140Z,96536.44
2023-04-14T08:10:52.198Z,96534.16
2023-04-14T08:14:57.348Z,96529.47
2023-04-14T08:19:00.656Z,96546.63
2023-04-14T08:23:07.328Z,96546.50
2023-04-14T08:27:10.597Z,96530.47
2023-04-14T08:31:13.970Z,96527.38
2023-04-14T08:35:39.387Z,96532.09
2023-04-14T08:39:42.381Z,96520.78
2023-04-14T08:43:46.487Z,96529.00
2023-04-14T08:47:54.588Z,96535.47
2023-04-14T08:52:00.838Z,96529.66
2023-04-14T08:56:09.747Z,96544.34
2023-04-14T09:00:14.363Z,96539.19
2023-04-14T09:04:21.084Z,96547.28
2023-04-14T09:08:25.119Z,96545.31
2023-04-14T09:12:32.557Z,96552.28
2023-04-14T09:16:36.417Z,96545.00
2023-04-14T09:20:41.598Z,96538.50
2023-04-14T09:24:45.483Z,96536.59
2023-04-14T09:28:50.484Z,96543.53
2023-04-14T09:32:54.584Z,96544.81
2023-04-14T09:37:03.850Z,96545.34
2023-04-14T09:41:07.595Z,96555.34
2023-04-14T09:45:13.667Z,96549.88
2023-04-14T09:49:17.202Z,96543.72
2023-04-14T09:53:28.064Z,96544.19
2023-04-14T09:57:31.591Z,96525.59
2023-04-14T10:01:36.895Z,96528.03
2023-04-14T10:05:40.316Z,96527.72
2023-04-14T10:09:43.799Z,96536.75
2023-04-14T10:13:47.449Z,96523.19
2023-04-14T10:17:52.830Z,96524.31
2023-04-14T10:21:56.165Z,96540.16
2023-04-14T10:26:00.304Z,96533.38
2023-04-14T10:30:04.165Z,96532.22
2023-04-14T10:34:14.166Z,96526.53
2023-04-14T10:38:17.522Z,96524.28
2023-04-14T10:42:21.291Z,96517.19
2023-04-14T10:46:24.960Z,96515.91
2023-04-14T10:50:32.302Z,96512.31
2023-04-14T10:54:51.505Z,96514.41
2023-04-14T10:58:59.692Z,96511.31
2023-04-14T11:03:05.970Z,96514.22
2023-04-14T11:07:11.722Z,96521.97
2023-04-14T11:11:18.740Z,96515.78
2023-04-14T11:15:22.578Z,96508.13
2023-04-14T11:23:31.699Z,96506.66
2023-04-14T11:27:35.136Z,96499.88
2023-04-14T11:31:38.717Z,96499.19
2023-04-14T11:35:44.269Z,96508.13
2023-04-14T11:39:49.515Z,96510.00
2023-04-14T11:43:53.033Z,96506.13
2023-04-14T11:48:01.486Z,96510.09
2023-04-14T11:52:10.561Z,96515.44
2023-04-14T11:56:15.782Z,96514.63
2023-04-14T12:00:19.441Z,96515.56
2023-04-14T12:04:23.011Z,96508.44
2023-04-14T12:08:26.168Z,96508.44
2023-04-14T12:12:34.368Z,96507.00
2023-04-14T12:16:38.507Z,96512.19
2023-04-14T12:20:47.236Z,96507.78
2023-04-14T12:24:50.681Z,96507.78
2023-04-14T12:28:59.213Z,96502.91
2023-04-14T12:37:09.114Z,96497.06
2023-04-14T12:41:12.358Z,96483.75
2023-04-14T12:45:18.405Z,96482.16
2023-04-14T12:49:31.916Z,96484.69
2023-04-14T12:53:38.750Z,96484.69
2023-04-14T12:57:43.269Z,96480.81
2023-04-14T13:01:48.079Z,96469.78
2023-04-14T13:05:51.890Z,96463.91
2023-04-14T13:09:55.074Z,96452.88
2023-04-14T13:13:58.568Z,96447.03
2023-04-14T13:18:03.117Z,96450.56
2023-04-14T13:22:06.108Z,96457.81
2023-04-14T13:26:10.129Z,96453.47
2023-04-14T13:30:16.614Z,96457.66
2023-04-14T13:34:21.009Z,96462.22
2023-04-14T13:38:24.193Z,96461.41
2023-04-14T13:42:27.761Z,96461.59
2023-04-14T13:46:40.492Z,96467.84
2023-04-14T13:50:46.741Z,96471.09
2023-04-14T13:54:50.300Z,96469.94
2023-04-14T13:58:55.982Z,96456.69
2023-04-14T14:02:59.605Z,96462.22
2023-04-14T14:07:04.608Z,96462.22
2023-04-14T14:11:07.953Z,96457.38
2023-04-14T14:15:12.563Z,96453.47
2023-04-14T14:19:17.269Z,96438.81
2023-04-14T14:23:22.474Z,96444.28
2023-04-14T14:27:26.993Z,96442.31
2023-04-14T14:31:30.422Z,96433.72
2023-04-14T14:35:33.789Z,96434.88
2023-04-14T14:39:38.572Z,96426.81
2023-04-14T14:43:42.139Z,96421.63
2023-04-14T14:47:48.706Z,96415.19
2023-04-14T14:51:52.616Z,96405.59
2023-04-14T14:55:57.227Z,96414.13
2023-04-14T15:00:00.557Z,96422.63
2023-04-14T15:04:08.463Z,96420.06
2023-04-14T15:08:13.636Z,96415.63
2023-04-14T15:12:20.361Z,96425.13
2023-04-14T15:16:23.618Z,96415.97
2023-04-14T15:20:26.964Z,96422.44
2023-04-14T15:24:30.160Z,96422.06
2023-04-14T15:28:36.129Z,96425.31
2023-04-14T15:32:39.511Z,96424.97
2023-04-14T15:36:43.109Z,96419.31
2023-04-14T15:40:46.331Z,96412.31
2023-04-14T15:44:52.264Z,96411.69
2023-04-14T15:48:56.002Z,96411.06
2023-04-14T15:52:59.221Z,96406.84
2023-04-14T15:57:04.780Z,96409.44
2023-04-14T16:01:10.610Z,96407.84
2023-04-14T16:05:15.117Z,96413.22
2023-04-14T16:09:18.539Z,96415.63
2023-04-14T16:13:22.222Z,96410.78
2023-04-14T16:17:27.047Z,96410.78
2023-04-14T16:21:30.307Z,96417.16
2023-04-14T16:25:35.208Z,96401.09
2023-04-14T16:29:39.036Z,96399.06
2023-04-14T16:33:43.961Z,96399.59
2023-04-14T16:37:47.249Z,96399.59
2023-04-14T16:41:51.994Z,96407.09
2023-04-14T16:45:55.546Z,96396.91
2023-04-14T16:50:00.798Z,96396.09
2023-04-14T16:54:05.166Z,96393.88
2023-04-14T16:58:10.090Z,96389.47
2023-04-14T17:02:13.550Z,96398.06
2023-04-14T17:06:19.296Z,96391.28
2023-04-14T17:10:23.011Z,96393.22
2023-04-14T17:14:27.492Z,96396.81
2023-04-14T17:18:31.423Z,96393.22
2023-04-14T17:22:37.559Z,96391.63
2023-04-14T17:26:40.558Z,96399.22
2023-04-14T17:30:44.371Z,96396.16
2023-04-14T17:34:50.169Z,96400.84
2023-04-14T17:38:55.188Z,96396.47
2023-04-14T17:43:04.449Z,96399.66
2023-04-14T17:47:13.770Z,96395.47
2023-04-14T17:51:18.867Z,96403.25
2023-04-14T17:55:23.928Z,96408.44
2023-04-14T17:59:27.190Z,96399.56
2023-04-14T18:03:31.053Z,96405.56
2023-04-14T18:07:34.705Z,96407.53
2023-04-14T18:11:40.341Z,96401.09
2023-04-14T18:15:44.806Z,96411.47
2023-04-14T18:19:48.415Z,96408.22
2023-04-14T18:28:03.913Z,96410.19
2023-04-14T18:32:07.384Z,96410.19
2023-04-14T18:36:10.922Z,96403.88
2023-04-14T18:40:16.906Z,96407.88
2023-04-14T18:44:24.645Z,96401.72
2023-04-14T18:48:27.705Z,96405.94
2023-04-14T18:52:31.187Z,96412.72
2023-04-14T18:56:35.685Z,96409.13
2023-04-14T19:00:40.895Z,96404.94
2023-04-14T19:04:44.968Z,96401.53
2023-04-14T19:08:48.427Z,96391.63
2023-04-14T19:12:51.653Z,96394.22
2023-04-14T19:16:56.726Z,96394.81
2023-04-14T19:21:00.192Z,96393.88
2023-04-14T19:25:04.440Z,96390.44
2023-04-14T19:29:10.321Z,96379.59
2023-04-14T19:33:15.713Z,96387.69
2023-04-14T19:37:18.900Z,96383.31
2023-04-14T19:41:22.088Z,96380.72
2023-04-14T19:45:25.175Z,96381.50
2023-04-14T19:49:32.938Z,96383.47
2023-04-14T19:53:36.542Z,96372.09
2023-04-14T19:57:39.841Z,96371.47
2023-04-14T20:01:45.444Z,96363.34
2023-04-14T20:05:53.064Z,96347.75
2023-04-14T20:09:56.440Z,96348.56
2023-04-14T20:14:00.709Z,96368.53
2023-04-14T20:18:09.293Z,96362.38
2023-04-14T20:22:15.225Z,96361.91
2023-04-14T20:26:18.285Z,96369.22
2023-04-14T20:30:22.382Z,96364.41
2023-04-14T20:34:25.837Z,96366.38
2023-04-14T20:38:30.935Z,96360.09
2023-04-14T20:42:36.103Z,96357.41
2023-04-14T20:46:40.018Z,96349.00
2023-04-14T20:50:44.566Z,96337.38
2023-04-14T20:54:51.829Z,96322.94
2023-04-14T20:58:55.055Z,96322.69
2023-04-14T21:02:58.952Z,96323.22
2023-04-14T21:07:02.565Z,96324.19
2023-04-14T21:11:17.146Z,96332.31
2023-04-14T21:15:47.056Z,96332.69
2023-04-14T21:19:45.085Z,96336.06
2023-04-14T21:23:49.204Z,96329.09
2023-04-14T21:27:54.617Z,96335.28
2023-04-14T21:31:58.492Z,96326.84
2023-04-14T21:36:02.969Z,96332.69
2023-04-14T21:40:10.242Z,96323.72
2023-04-14T21:44:16.129Z,96336.53
2023-04-14T21:48:21.124Z,96337.50
2023-04-14T21:52:25.646Z,96339.13
2023-04-14T21:56:29.566Z,96335.53
2023-04-14T22:00:34.524Z,96328.75
2023-04-14T22:04:38.657Z,96329.09
2023-04-14T22:08:42.813Z,96330.34
2023-04-14T22:12:48.293Z,96331.50
2023-04-14T22:16:54.275Z,96336.06
2023-04-14T22:20:57.452Z,96320.69
2023-04-14T22:25:00.681Z,96325.06
2023-04-14T22:29:04.468Z,96326.66
2023-04-14T22:33:11.400Z,96329.19
2023-04-14T22:37:15.093Z,96332.13
2023-04-14T22:41:20.416Z,96326.28
2023-04-14T22:45:23.702Z,96328.88
2023-04-14T22:49:28.867Z,96316.91
2023-04-14T22:53:34.630Z,96315.31
2023-04-14T22:57:39.004Z,96319.84
2023-04-14T23:01:42.662Z,96315.31
2023-04-14T23:05:47.434Z,96317.72
2023-04-14T23:09:51.993Z,96323.69
2023-04-14T23:13:55.209Z,96321.91
2023-04-14T23:17:59.604Z,96321.41
2023-04-14T23:22:04.854Z,96330.78
2023-04-14T23:26:10.012Z,96328.66
2023-04-14T23:30:13.962Z,96337.03
2023-04-14T23:34:17.092Z,96335.28
2023-04-14T23:38:22.029Z,96336.88
2023-04-14T23:42:25.511Z,96331.69
2023-04-14T23:46:28.981Z,96336.69
2023-04-14T23:51:01.319Z,96331.34
2023-04-14T23:54:58.732Z,96337.16
2023-04-14T23:59:02.513Z,96334.56
